createdAt,value
2022-11-09T00:02:00.372Z,101266.41
2022-11-09T00:04:30.341Z,101266.13
2022-11-09T00:07:00.414Z,101267.81
2022-11-09T00:09:30.596Z,101276.94
2022-11-09T00:12:19.113Z,101277.25
2022-11-09T00:14:49.104Z,101276.94
2022-11-09T00:17:19.078Z,101282.13
2022-11-09T00:19:49.114Z,101283.25
2022-11-09T00:25:04.805Z,101295.38
2022-11-09T00:27:34.803Z,101294.56
2022-11-09T00:30:05.218Z,101299.50
2022-11-09T00:32:35.471Z,101303.13
2022-11-09T00:35:06.163Z,101315.81
2022-11-09T00:37:54.730Z,101311.09
2022-11-09T00:40:24.997Z,101317.66
2022-11-09T00:42:55.149Z,101310.53
2022-11-09T00:45:43.744Z,101323.47
2022-11-09T00:48:14.048Z,101326.75
2022-11-09T00:50:45.063Z,101337.75
2022-11-09T00:53:15.354Z,101341.63
2022-11-09T00:55:45.386Z,101345.22
2022-11-09T00:58:15.566Z,101359.81
2022-11-09T01:00:46.447Z,101358.69
2022-11-09T01:03:17.203Z,101354.03
2022-11-09T01:05:47.487Z,101358.41
2022-11-09T01:08:20.847Z,101354.81
2022-11-09T01:10:51.691Z,101355.34
2022-11-09T01:13:25.375Z,101357.78
2022-11-09T01:15:56.336Z,101359.16
2022-11-09T01:18:26.837Z,101361.59
2022-11-09T01:21:16.964Z,101363.81
2022-11-09T01:23:47.347Z,101363.03
2022-11-09T01:26:18.553Z,101369.66
2022-11-09T01:28:49.039Z,101369.34
2022-11-09T01:31:21.570Z,101377.91
2022-11-09T01:33:51.997Z,101383.97
2022-11-09T01:36:26.572Z,101389.47
2022-11-09T01:38:56.993Z,101384.25
2022-11-09T01:41:31.227Z,101388.94
2022-11-09T01:44:20.388Z,101399.66
2022-11-09T01:46:56.702Z,101390.59
2022-11-09T01:49:43.076Z,101409.03
2022-11-09T01:52:37.690Z,101394.97
2022-11-09T01:55:14.910Z,101403.53
2022-11-09T02:00:51.207Z,101411.22
2022-11-09T02:03:28.948Z,101411.22
2022-11-09T02:06:00.205Z,101404.06
2022-11-09T02:08:30.812Z,101408.16
2022-11-09T02:11:16.408Z,101413.66
2022-11-09T02:13:50.575Z,101409.28
2022-11-09T02:16:21.723Z,101409.78
2022-11-09T02:19:05.576Z,101409.78
2022-11-09T02:21:36.112Z,101416.94
2022-11-09T02:26:54.793Z,101415.31
2022-11-09T02:29:34.464Z,101416.13
2022-11-09T02:32:11.126Z,101407.56
2022-11-09T02:34:41.366Z,101404.53
2022-11-09T02:37:39.529Z,101399.81
2022-11-09T02:40:25.309Z,101399.81
2022-11-09T02:42:57.419Z,101407.81
2022-11-09T02:45:27.713Z,101413.00
2022-11-09T02:47:58.050Z,101403.09
2022-11-09T02:50:30.237Z,101411.88
2022-11-09T02:53:01.972Z,101406.38
2022-11-09T02:55:34.738Z,101404.41
2022-11-09T02:58:05.012Z,101398.63
2022-11-09T03:00:35.247Z,101391.47
2022-11-09T03:03:06.893Z,101400.53
2022-11-09T03:05:37.438Z,101398.63
2022-11-09T03:08:26.350Z,101395.03
2022-11-09T03:10:56.602Z,101393.63
2022-11-09T03:13:27.191Z,101385.38
2022-11-09T03:15:57.857Z,101384.53
2022-11-09T03:18:46.040Z,101386.16
2022-11-09T03:21:16.544Z,101390.03
2022-11-09T03:23:47.829Z,101383.41
2022-11-09T03:26:18.351Z,101375.97
2022-11-09T03:28:49.248Z,101367.72
2022-11-09T03:31:19.540Z,101372.59
2022-11-09T03:33:52.289Z,101362.41
2022-11-09T03:36:23.444Z,101356.06
2022-11-09T03:38:53.694Z,101362.09
2022-11-09T03:41:24.004Z,101354.34
2022-11-09T03:43:54.266Z,101354.84
2022-11-09T03:46:24.398Z,101354.84
2022-11-09T03:48:54.666Z,101358.13
2022-11-09T03:51:24.731Z,101346.78
2022-11-09T03:53:54.995Z,101338.53
2022-11-09T03:56:25.480Z,101337.41
2022-11-09T03:58:55.691Z,101339.88
2022-11-09T04:01:44.979Z,101327.69
2022-11-09T04:04:33.952Z,101320.25
2022-11-09T04:07:04.812Z,101318.63
2022-11-09T04:09:35.938Z,101311.16
2022-11-09T04:12:07.843Z,101316.66
2022-11-09T04:14:38.608Z,101308.91
2022-11-09T04:17:09.218Z,101300.97
2022-11-09T04:19:39.931Z,101294.59
2022-11-09T04:22:11.004Z,101289.59
2022-11-09T04:24:41.723Z,101290.72
2022-11-09T04:27:12.686Z,101284.09
2022-11-09T04:29:43.419Z,101278.56
2022-11-09T04:32:14.395Z,101271.66
2022-11-09T04:34:45.368Z,101270.81
2022-11-09T04:37:16.766Z,101263.66
2022-11-09T04:39:47.517Z,101262.25
2022-11-09T04:42:18.354Z,101250.91
2022-11-09T04:44:48.972Z,101246.53
2022-11-09T04:47:19.877Z,101241.84
2022-11-09T04:49:50.593Z,101240.69
2022-11-09T04:52:21.338Z,101241.53
2022-11-09T04:54:52.063Z,101230.50
2022-11-09T04:57:22.913Z,101236.31
2022-11-09T04:59:53.770Z,101225.28
2022-11-09T05:02:24.782Z,101227.72
2022-11-09T05:04:55.583Z,101215.06
2022-11-09T05:07:26.468Z,101217.81
2022-11-09T05:09:57.529Z,101215.56
2022-11-09T05:12:28.302Z,101211.19
2022-11-09T05:14:59.118Z,101212.50
2022-11-09T05:20:16.070Z,101206.72
2022-11-09T05:23:04.800Z,101202.00
2022-11-09T05:25:53.599Z,101194.03
2022-11-09T05:28:24.623Z,101191.81
2022-11-09T05:30:55.328Z,101189.06
2022-11-09T05:33:26.227Z,101184.03
2022-11-09T05:36:00.623Z,101186.28
2022-11-09T05:38:31.538Z,101182.41
2022-11-09T05:41:02.376Z,101186.78
2022-11-09T05:43:51.334Z,101184.66
2022-11-09T05:46:22.801Z,101177.19
2022-11-09T05:48:53.631Z,101176.06
2022-11-09T05:51:24.401Z,101173.31
2022-11-09T05:53:55.138Z,101175.25
2022-11-09T05:56:26.278Z,101176.91
2022-11-09T05:58:57.133Z,101171.06
2022-11-09T06:01:28.146Z,101169.94
2022-11-09T06:03:58.966Z,101161.66
2022-11-09T06:06:30.016Z,101156.16
2022-11-09T06:09:00.863Z,101154.19
2022-11-09T06:11:31.964Z,101156.94
2022-11-09T06:14:02.693Z,101158.06
2022-11-09T06:16:33.542Z,101151.94
2022-11-09T06:19:04.735Z,101148.69
2022-11-09T06:21:53.453Z,101145.13
2022-11-09T06:24:24.291Z,101139.88
2022-11-09T06:26:55.139Z,101128.84
2022-11-09T06:29:25.869Z,101129.69
2022-11-09T06:31:56.647Z,101129.38
2022-11-09T06:34:27.316Z,101128.56
2022-11-09T06:36:58.268Z,101113.66
2022-11-09T06:39:29.170Z,101111.69
2022-11-09T06:41:59.982Z,101122.94
2022-11-09T06:44:30.684Z,101106.06
2022-11-09T06:47:01.198Z,101109.63
2022-11-09T06:49:31.993Z,101104.13
2022-11-09T06:52:02.895Z,101104.13
2022-11-09T06:54:35.269Z,101095.56
2022-11-09T06:57:06.278Z,101097.19
2022-11-09T06:59:37.979Z,101098.31
2022-11-09T07:02:09.416Z,101094.22
2022-11-09T07:04:39.690Z,101097.19
2022-11-09T07:07:10.865Z,101085.13
2022-11-09T07:09:41.185Z,101078.50
2022-11-09T07:12:13.185Z,101079.63
2022-11-09T07:14:44.069Z,101079.63
2022-11-09T07:17:14.850Z,101076.84
2022-11-09T07:19:45.618Z,101075.72
2022-11-09T07:22:16.470Z,101072.38
2022-11-09T07:24:47.269Z,101069.91
2022-11-09T07:27:18.238Z,101072.88
2022-11-09T07:29:49.056Z,101064.09
2022-11-09T07:32:20.069Z,101065.72
2022-11-09T07:34:50.755Z,101062.63
2022-11-09T07:37:21.646Z,101058.75
2022-11-09T07:39:52.378Z,101061.19
2022-11-09T07:42:23.190Z,101056.31
2022-11-09T07:44:53.942Z,101056.31
2022-11-09T07:47:24.898Z,101047.53
2022-11-09T07:49:55.691Z,101051.94
2022-11-09T07:52:26.587Z,101050.81
2022-11-09T07:54:57.254Z,101051.09
2022-11-09T07:57:28.173Z,101035.38
2022-11-09T07:59:59.003Z,101037.00
2022-11-09T08:02:29.894Z,101035.38
2022-11-09T08:05:00.664Z,101030.66
2022-11-09T08:07:31.305Z,101035.88
2022-11-09T08:10:02.103Z,101033.94
2022-11-09T08:12:36.870Z,101028.09
2022-11-09T08:15:09.399Z,101025.31
2022-11-09T08:17:40.277Z,101028.91
2022-11-09T08:20:11.567Z,101030.56
2022-11-09T08:22:46.500Z,101027.28
2022-11-09T08:25:17.909Z,101020.94
2022-11-09T08:28:10.658Z,101025.31
2022-11-09T08:30:44.407Z,101032.97
2022-11-09T08:33:16.124Z,101030.56
2022-11-09T08:35:53.063Z,101025.31
2022-11-09T08:38:24.555Z,101025.31
2022-11-09T08:41:01.434Z,101025.31
2022-11-09T08:43:32.145Z,101026.97
2022-11-09T08:46:20.966Z,101031.34
2022-11-09T08:48:51.791Z,101023.41
2022-11-09T08:51:40.634Z,101027.78
2022-11-09T08:54:14.026Z,101027.47
2022-11-09T08:56:44.772Z,101032.97
2022-11-09T08:59:15.864Z,101025.84
2022-11-09T09:01:46.554Z,101028.31
2022-11-09T09:04:17.324Z,101030.22
2022-11-09T09:06:48.275Z,101029.09
2022-11-09T09:09:19.467Z,101031.84
2022-11-09T09:11:50.672Z,101034.63
2022-11-09T09:14:21.383Z,101036.56
2022-11-09T09:17:10.590Z,101031.34
2022-11-09T09:19:43.815Z,101039.63
2022-11-09T09:22:18.281Z,101036.88
2022-11-09T09:27:35.153Z,101033.81
2022-11-09T09:30:06.647Z,101034.31
2022-11-09T09:32:37.474Z,101035.44
2022-11-09T09:35:26.392Z,101034.63
2022-11-09T09:37:57.919Z,101035.75
2022-11-09T09:41:01.908Z,101041.78
2022-11-09T09:43:45.995Z,101037.09
2022-11-09T09:46:19.748Z,101043.72
2022-11-09T09:48:59.728Z,101044.53
2022-11-09T09:51:35.977Z,101051.69
2022-11-09T09:54:18.615Z,101050.88
2022-11-09T09:56:52.294Z,101063.03
2022-11-09T09:59:42.482Z,101063.03
2022-11-09T10:02:33.554Z,101065.47
2022-11-09T10:05:09.659Z,101066.28
2022-11-09T10:08:06.169Z,101065.16
2022-11-09T10:10:51.170Z,101069.34
2022-11-09T10:13:59.069Z,101070.66
2022-11-09T10:16:49.885Z,101073.44
2022-11-09T10:19:35.488Z,101072.63
2022-11-09T10:22:18.752Z,101077.81
2022-11-09T10:25:50.437Z,101081.41
2022-11-09T10:28:20.306Z,101079.78
2022-11-09T10:30:52.369Z,101077.53
2022-11-09T10:33:24.554Z,101077.03
2022-11-09T10:36:24.657Z,101079.47
2022-11-09T10:38:59.654Z,101078.66
2022-11-09T10:41:49.566Z,101085.31
2022-11-09T10:44:38.922Z,101091.63
2022-11-09T10:47:29.095Z,101090.50
2022-11-09T10:50:35.846Z,101099.91
2022-11-09T10:53:27.519Z,101096.84
2022-11-09T10:56:23.951Z,101096.84
2022-11-09T10:59:40.658Z,101103.16
2022-11-09T11:02:29.642Z,101099.28
2022-11-09T11:05:30.664Z,101105.63
2022-11-09T11:08:33.687Z,101110.66
2022-11-09T11:11:36.769Z,101109.81
2022-11-09T11:14:35.221Z,101113.41
2022-11-09T11:17:37.977Z,101118.41
2022-11-09T11:20:30.316Z,101118.09
2022-11-09T11:23:28.067Z,101125.56
2022-11-09T11:26:31.986Z,101133.84
2022-11-09T11:29:55.197Z,101134.66
2022-11-09T11:36:13.159Z,101141.28
2022-11-09T11:39:46.825Z,101147.31
2022-11-09T11:43:02.955Z,101146.50
2022-11-09T11:45:57.489Z,101163.88
2022-11-09T11:49:04.586Z,101150.91
2022-11-09T11:51:56.408Z,101156.44
2022-11-09T11:54:53.178Z,101159.19
2022-11-09T11:58:07.056Z,101166.34
2022-11-09T12:01:06.199Z,101164.38
2022-11-09T12:04:41.063Z,101168.28
2022-11-09T12:07:42.501Z,101179.31
2022-11-09T12:10:49.605Z,101177.66
2022-11-09T12:13:49.997Z,101190.16
2022-11-09T12:16:57.432Z,101190.44
2022-11-09T12:19:49.440Z,101188.53
2022-11-09T12:23:15.663Z,101191.78
2022-11-09T12:26:43.027Z,101192.41
2022-11-09T12:30:00.495Z,101199.88
2022-11-09T12:33:16.240Z,101201.81
2022-11-09T12:39:43.247Z,101210.91
2022-11-09T12:42:47.909Z,101215.28
2022-11-09T12:45:38.088Z,101214.47
2022-11-09T12:48:32.505Z,101218.88
2022-11-09T12:51:22.856Z,101215.28
2022-11-09T12:54:14.335Z,101229.91
2022-11-09T12:57:09.471Z,101230.22
2022-11-09T13:00:03.144Z,101249.22
2022-11-09T13:03:02.241Z,101240.94
2022-11-09T13:05:52.417Z,101244.22
2022-11-09T13:08:43.346Z,101252.50
2022-11-09T13:11:49.526Z,101252.78
2022-11-09T13:14:41.227Z,101254.94
2022-11-09T13:17:30.415Z,101251.06
2022-11-09T13:20:54.779Z,101251.06
2022-11-09T13:24:00.935Z,101260.16
2022-11-09T13:26:51.500Z,101254.94
2022-11-09T13:29:43.509Z,101256.88
2022-11-09T13:32:36.355Z,101264.34
2022-11-09T13:35:43.746Z,101265.16
2022-11-09T13:38:34.008Z,101263.34
2022-11-09T13:41:35.357Z,101271.50
2022-11-09T13:44:37.547Z,101272.00
2022-11-09T13:48:58.365Z,101278.66
2022-11-09T13:51:51.091Z,101268.53
2022-11-09T13:54:46.852Z,101272.94
2022-11-09T13:57:36.080Z,101271.63
2022-11-09T14:00:28.476Z,101264.94
2022-11-09T14:03:27.337Z,101270.28
2022-11-09T14:06:16.662Z,101276.31
2022-11-09T14:09:07.175Z,101275.78
2022-11-09T14:11:56.625Z,101279.06
2022-11-09T14:15:04.400Z,101276.38
2022-11-09T14:18:04.892Z,101281.63
2022-11-09T14:21:17.853Z,101280.78
2022-11-09T14:24:15.943Z,101279.97
2022-11-09T14:27:19.724Z,101285.00
2022-11-09T14:30:27.072Z,101280.91
2022-11-09T14:33:32.045Z,101289.69
2022-11-09T14:36:21.269Z,101285.50
2022-11-09T14:39:40.615Z,101292.94
2022-11-09T14:42:30.829Z,101294.59
2022-11-09T14:45:20.729Z,101302.56
2022-11-09T14:48:19.062Z,101298.38
2022-11-09T14:51:16.104Z,101290.69
2022-11-09T14:54:06.958Z,101294.81
2022-11-09T14:56:58.187Z,101297.06
2022-11-09T14:59:48.458Z,101302.56
2022-11-09T15:02:37.468Z,101302.78
2022-11-09T15:05:37.599Z,101296.22
2022-11-09T15:08:26.619Z,101311.38
2022-11-09T15:11:15.948Z,101300.34
2022-11-09T15:14:25.613Z,101301.44
2022-11-09T15:17:20.103Z,101297.56
2022-11-09T15:20:12.408Z,101301.13
2022-11-09T15:23:49.958Z,101304.41
2022-11-09T15:26:50.739Z,101311.56
2022-11-09T15:29:47.854Z,101307.69
2022-11-09T15:32:41.127Z,101306.66
2022-11-09T15:35:30.813Z,101306.84
2022-11-09T15:38:33.643Z,101308.81
2022-11-09T15:41:24.340Z,101302.97
2022-11-09T15:44:17.058Z,101300.53
2022-11-09T15:47:06.848Z,101304.41
2022-11-09T15:49:55.858Z,101304.72
2022-11-09T15:52:48.349Z,101299.50
2022-11-09T15:55:37.688Z,101304.22
2022-11-09T15:58:27.032Z,101305.00
2022-11-09T16:01:16.359Z,101301.75
2022-11-09T16:04:05.754Z,101305.00
2022-11-09T16:06:54.918Z,101304.22
2022-11-09T16:09:45.093Z,101300.63
2022-11-09T16:12:34.389Z,101302.25
2022-11-09T16:15:23.480Z,101306.97
2022-11-09T16:18:13.246Z,101306.97
2022-11-09T16:21:17.311Z,101301.75
2022-11-09T16:24:06.657Z,101306.13
2022-11-09T16:26:57.678Z,101298.69
2022-11-09T16:29:47.131Z,101292.94
2022-11-09T16:32:36.034Z,101286.63
2022-11-09T16:35:27.656Z,101286.63
2022-11-09T16:38:18.285Z,101280.28
2022-11-09T16:41:08.388Z,101289.69
2022-11-09T16:43:59.339Z,101290.50
2022-11-09T16:46:50.348Z,101297.34
2022-11-09T16:49:39.572Z,101293.78
2022-11-09T16:52:28.383Z,101298.78
2022-11-09T16:55:18.089Z,101303.50
2022-11-09T16:58:07.366Z,101305.09
2022-11-09T17:01:10.464Z,101298.47
2022-11-09T17:04:00.661Z,101295.72
2022-11-09T17:06:49.932Z,101296.81
2022-11-09T17:09:39.371Z,101305.63
2022-11-09T17:12:28.649Z,101294.06
2022-11-09T17:15:17.795Z,101294.91
2022-11-09T17:18:07.253Z,101294.69
2022-11-09T17:20:55.956Z,101293.59
2022-11-09T17:23:45.950Z,101291.94
2022-11-09T17:26:36.190Z,101285.31
2022-11-09T17:29:27.392Z,101277.63
2022-11-09T17:32:16.671Z,101285.59
2022-11-09T17:35:05.476Z,101280.91
2022-11-09T17:37:56.618Z,101279.78
2022-11-09T17:40:45.971Z,101284.47
2022-11-09T17:43:36.745Z,101282.03
2022-11-09T17:46:25.928Z,101276.00
2022-11-09T17:49:15.069Z,101271.59
2022-11-09T17:52:04.112Z,101270.47
2022-11-09T17:54:53.222Z,101266.41
2022-11-09T17:57:42.756Z,101258.41
2022-11-09T18:00:31.858Z,101250.44
2022-11-09T18:03:21.432Z,101256.78
2022-11-09T18:06:25.429Z,101256.56
2022-11-09T18:12:23.671Z,101244.09
2022-11-09T18:15:12.796Z,101242.97
2022-11-09T18:18:02.248Z,101245.75
2022-11-09T18:20:51.327Z,101243.19
2022-11-09T18:23:40.729Z,101243.50
2022-11-09T18:26:29.687Z,101240.41
2022-11-09T18:29:19.171Z,101245.13
2022-11-09T18:32:08.759Z,101240.75
2022-11-09T18:34:58.700Z,101241.34
2022-11-09T18:37:51.501Z,101241.34
2022-11-09T18:40:40.749Z,101223.66
2022-11-09T18:43:29.946Z,101226.44
2022-11-09T18:46:21.367Z,101226.22
2022-11-09T18:49:14.077Z,101222.63
2022-11-09T18:52:03.383Z,101220.72
2022-11-09T18:54:52.636Z,101223.78
2022-11-09T18:57:41.932Z,101214.38
2022-11-09T19:00:30.850Z,101213.03
2022-11-09T19:03:19.922Z,101206.41
2022-11-09T19:06:11.170Z,101202.84
2022-11-09T19:09:18.310Z,101202.84
2022-11-09T19:12:10.897Z,101199.53
2022-11-09T19:15:00.115Z,101202.31
2022-11-09T19:17:48.671Z,101195.16
2022-11-09T19:20:41.526Z,101190.75
2022-11-09T19:23:34.414Z,101189.13
2022-11-09T19:26:27.369Z,101185.84
2022-11-09T19:29:17.677Z,101179.81
2022-11-09T19:32:06.957Z,101179.00
2022-11-09T19:34:55.951Z,101181.75
2022-11-09T19:37:45.197Z,101183.91
2022-11-09T19:40:39.305Z,101185.03
2022-11-09T19:43:28.889Z,101197.72
2022-11-09T19:46:18.060Z,101188.91
2022-11-09T19:49:08.084Z,101186.97
2022-11-09T19:51:58.269Z,101188.91
2022-11-09T19:54:47.208Z,101186.16
2022-11-09T19:57:36.143Z,101186.44
2022-11-09T20:00:25.412Z,101181.75
2022-11-09T20:03:14.633Z,101183.19
2022-11-09T20:06:04.708Z,101173.28
2022-11-09T20:08:54.731Z,101180.41
2022-11-09T20:12:02.000Z,101177.19
2022-11-09T20:14:50.834Z,101184.31
2022-11-09T20:17:39.884Z,101187.06
2022-11-09T20:20:28.788Z,101187.38
2022-11-09T20:23:21.592Z,101180.53
2022-11-09T20:26:14.135Z,101180.75
2022-11-09T20:29:03.231Z,101179.94
2022-11-09T20:31:52.530Z,101176.34
2022-11-09T20:34:41.634Z,101182.19
2022-11-09T20:37:30.626Z,101183.31
2022-11-09T20:40:19.826Z,101185.53
2022-11-09T20:43:08.883Z,101184.41
2022-11-09T20:45:59.458Z,101187.47
2022-11-09T20:48:56.081Z,101181.16
2022-11-09T20:51:45.543Z,101180.63
2022-11-09T20:54:34.448Z,101190.84
2022-11-09T20:57:24.221Z,101187.25
2022-11-09T21:00:14.391Z,101185.53
2022-11-09T21:03:03.428Z,101185.34
2022-11-09T21:05:59.093Z,101191.34
2022-11-09T21:08:53.426Z,101187.25
2022-11-09T21:12:02.765Z,101182.78
2022-11-09T21:14:51.912Z,101181.16
2022-11-09T21:17:41.281Z,101180.31
2022-11-09T21:20:30.688Z,101185.03
2022-11-09T21:23:19.772Z,101176.75
2022-11-09T21:26:27.080Z,101173.19
2022-11-09T21:29:37.148Z,101173.78
2022-11-09T21:32:27.253Z,101180.63
2022-11-09T21:35:16.413Z,101175.94
2022-11-09T21:38:05.857Z,101179.00
2022-11-09T21:40:54.976Z,101177.34
2022-11-09T21:43:44.271Z,101179.06
2022-11-09T21:46:33.961Z,101174.41
2022-11-09T21:49:22.830Z,101171.97
2022-11-09T21:52:11.687Z,101171.13
2022-11-09T21:55:00.811Z,101165.41
2022-11-09T21:57:51.848Z,101168.47
2022-11-09T22:00:41.230Z,101171.22
2022-11-09T22:03:30.378Z,101176.97
2022-11-09T22:06:20.185Z,101175.84
2022-11-09T22:09:11.108Z,101170.31
2022-11-09T22:12:18.306Z,101171.97
2022-11-09T22:15:26.351Z,101167.25
2022-11-09T22:18:35.401Z,101163.69
2022-11-09T22:21:27.244Z,101165.63
2022-11-09T22:24:16.318Z,101169.50
2022-11-09T22:27:05.404Z,101158.47
2022-11-09T22:29:54.685Z,101158.78
2022-11-09T22:32:43.804Z,101164.56
2022-11-09T22:35:33.098Z,101165.69
2022-11-09T22:38:22.069Z,101167.13
2022-11-09T22:43:24.574Z,101161.50
2022-11-09T22:46:19.841Z,101165.06
2022-11-09T22:49:09.455Z,101174.72
2022-11-09T22:51:58.765Z,101174.97
2022-11-09T22:54:47.802Z,101172.56
2022-11-09T22:57:39.770Z,101188.91
2022-11-09T23:00:28.807Z,101185.91
2022-11-09T23:03:18.807Z,101193.66
2022-11-09T23:06:10.893Z,101202.03
2022-11-09T23:08:59.972Z,101203.09
2022-11-09T23:11:48.914Z,101211.00
2022-11-09T23:14:56.484Z,101211.00
2022-11-09T23:18:03.621Z,101209.88
2022-11-09T23:20:53.175Z,101215.91
2022-11-09T23:23:42.662Z,101212.03
2022-11-09T23:26:33.286Z,101217.03
2022-11-09T23:29:22.253Z,101218.66
2022-11-09T23:32:11.165Z,101208.44
2022-11-09T23:35:00.196Z,101214.78
2022-11-09T23:37:49.454Z,101217.84
2022-11-09T23:43:48.656Z,101222.53
2022-11-09T23:46:38.324Z,101230.50
2022-11-09T23:49:27.507Z,101235.50
2022-11-09T23:52:16.456Z,101232.75
2022-11-09T23:55:05.511Z,101239.06
2022-11-09T23:57:54.930Z,101243.47
